createdAt,value
2022-11-14T00:01:10.612Z,5.00
2022-11-14T00:03:37.683Z,5.00
2022-11-14T00:06:08.655Z,5.00
2022-11-14T00:08:35.713Z,4.90
2022-11-14T00:11:03.008Z,4.90
2022-11-14T00:13:29.853Z,4.80
2022-11-14T00:15:57.256Z,4.80
2022-11-14T00:18:24.114Z,4.80
2022-11-14T00:20:52.900Z,4.70
2022-11-14T00:23:21.264Z,4.70
2022-11-14T00:25:48.373Z,4.70
2022-11-14T00:28:15.652Z,4.70
2022-11-14T00:30:46.004Z,4.70
2022-11-14T00:33:17.167Z,4.70
2022-11-14T00:35:54.548Z,4.70
2022-11-14T00:38:23.126Z,4.60
2022-11-14T00:40:50.234Z,4.60
2022-11-14T00:43:17.262Z,4.60
2022-11-14T00:45:47.641Z,4.60
2022-11-14T00:48:15.099Z,4.60
2022-11-14T00:50:42.581Z,4.60
2022-11-14T00:53:09.533Z,4.50
2022-11-14T00:55:36.391Z,4.50
2022-11-14T00:58:03.335Z,4.60
2022-11-14T01:00:30.452Z,4.60
2022-11-14T01:02:58.316Z,4.60
2022-11-14T01:05:25.758Z,4.60
2022-11-14T01:07:53.013Z,4.60
2022-11-14T01:10:21.194Z,4.60
2022-11-14T01:12:48.343Z,4.60
2022-11-14T01:15:15.227Z,4.60
2022-11-14T01:17:42.036Z,4.60
2022-11-14T01:20:09.152Z,4.60
2022-11-14T01:22:35.896Z,4.50
2022-11-14T01:25:02.659Z,4.60
2022-11-14T01:27:32.842Z,4.60
2022-11-14T01:29:59.641Z,4.60
2022-11-14T01:32:27.791Z,4.60
2022-11-14T01:34:54.818Z,4.60
2022-11-14T01:37:21.669Z,4.60
2022-11-14T01:39:48.621Z,4.50
2022-11-14T01:42:17.468Z,4.50
2022-11-14T01:44:49.133Z,4.50
2022-11-14T01:47:20.897Z,4.40
2022-11-14T01:49:51.544Z,4.50
2022-11-14T01:52:31.611Z,4.40
2022-11-14T01:55:02.983Z,4.40
2022-11-14T01:57:34.385Z,4.40
2022-11-14T02:00:09.265Z,4.40
2022-11-14T02:02:37.003Z,4.40
2022-11-14T02:05:10.696Z,4.40
2022-11-14T02:07:40.169Z,4.30
2022-11-14T02:10:10.515Z,4.40
2022-11-14T02:12:37.932Z,4.50
2022-11-14T02:15:04.961Z,4.50
2022-11-14T02:17:32.890Z,4.50
2022-11-14T02:20:11.687Z,4.50
2022-11-14T02:22:40.945Z,4.50
2022-11-14T02:25:08.918Z,4.50
2022-11-14T02:27:37.904Z,4.50
2022-11-14T02:30:12.215Z,4.50
2022-11-14T02:33:04.345Z,4.50
2022-11-14T02:35:25.947Z,4.50
2022-11-14T02:37:52.770Z,4.50
2022-11-14T02:40:19.681Z,4.50
2022-11-14T02:42:46.492Z,4.50
2022-11-14T02:45:14.022Z,4.50
2022-11-14T02:47:40.801Z,4.50
2022-11-14T02:50:07.776Z,4.50
2022-11-14T02:52:34.532Z,4.40
2022-11-14T02:55:01.250Z,4.30
2022-11-14T02:57:28.010Z,4.30
2022-11-14T02:59:54.973Z,4.30
2022-11-14T03:02:21.915Z,4.20
2022-11-14T03:04:48.642Z,4.20
2022-11-14T03:07:15.583Z,4.20
2022-11-14T03:09:42.344Z,4.30
2022-11-14T03:12:09.563Z,4.30
2022-11-14T03:14:36.411Z,4.30
2022-11-14T03:17:03.392Z,4.30
2022-11-14T03:19:30.386Z,4.30
2022-11-14T03:21:57.122Z,4.30
2022-11-14T03:24:23.851Z,4.30
2022-11-14T03:26:50.596Z,4.30
2022-11-14T03:29:17.385Z,4.30
2022-11-14T03:31:44.352Z,4.30
2022-11-14T03:34:11.461Z,4.30
2022-11-14T03:36:38.488Z,4.30
2022-11-14T03:39:06.205Z,4.30
2022-11-14T03:41:32.937Z,4.30
2022-11-14T03:43:59.660Z,4.30
2022-11-14T03:46:26.428Z,4.30
2022-11-14T03:48:53.205Z,4.30
2022-11-14T03:51:19.991Z,4.30
2022-11-14T03:53:47.203Z,4.20
2022-11-14T03:56:13.953Z,4.30
2022-11-14T03:58:40.648Z,4.30
2022-11-14T04:01:07.838Z,4.30
2022-11-14T04:03:34.673Z,4.30
2022-11-14T04:06:01.448Z,4.30
2022-11-14T04:08:28.449Z,4.30
2022-11-14T04:10:55.343Z,4.30
2022-11-14T04:13:22.047Z,4.30
2022-11-14T04:15:58.021Z,4.30
2022-11-14T04:18:26.064Z,4.30
2022-11-14T04:20:53.585Z,4.30
2022-11-14T04:23:20.340Z,4.40
2022-11-14T04:25:47.461Z,4.50
2022-11-14T04:28:14.503Z,4.50
2022-11-14T04:30:41.819Z,4.50
2022-11-14T04:33:08.761Z,4.50
2022-11-14T04:35:35.526Z,4.40
2022-11-14T04:38:02.457Z,4.40
2022-11-14T04:40:29.452Z,4.40
2022-11-14T04:42:56.217Z,4.40
2022-11-14T04:45:23.010Z,4.40
2022-11-14T04:47:49.804Z,4.40
2022-11-14T04:50:16.532Z,4.30
2022-11-14T04:52:43.287Z,4.40
2022-11-14T04:55:10.087Z,4.40
2022-11-14T04:57:37.080Z,4.30
2022-11-14T05:00:04.648Z,4.30
2022-11-14T05:02:32.867Z,4.30
2022-11-14T05:04:59.675Z,4.30
2022-11-14T05:07:26.557Z,4.30
2022-11-14T05:09:53.358Z,4.30
2022-11-14T05:12:20.192Z,4.30
2022-11-14T05:14:46.950Z,4.30
2022-11-14T05:17:13.777Z,4.30
2022-11-14T05:19:40.494Z,4.30
2022-11-14T05:22:07.208Z,4.30
2022-11-14T05:24:34.087Z,4.30
2022-11-14T05:27:00.847Z,4.20
2022-11-14T05:29:27.567Z,4.20
2022-11-14T05:31:54.321Z,4.20
2022-11-14T05:34:21.070Z,4.20
2022-11-14T05:36:47.822Z,4.30
2022-11-14T05:39:14.574Z,4.30
2022-11-14T05:41:41.397Z,4.20
2022-11-14T05:44:08.422Z,4.20
2022-11-14T05:46:35.479Z,4.30
2022-11-14T05:49:02.582Z,4.30
2022-11-14T05:51:29.640Z,4.20
2022-11-14T05:53:56.397Z,4.20
2022-11-14T05:56:23.274Z,4.20
2022-11-14T05:58:50.061Z,4.30
2022-11-14T06:01:19.916Z,4.30
2022-11-14T06:03:48.395Z,4.30
2022-11-14T06:06:18.621Z,4.30
2022-11-14T06:08:45.707Z,4.30
2022-11-14T06:11:18.227Z,4.40
2022-11-14T06:13:45.831Z,4.40
2022-11-14T06:16:19.705Z,4.50
2022-11-14T06:18:47.075Z,4.40
2022-11-14T06:21:19.638Z,4.50
2022-11-14T06:23:47.077Z,4.50
2022-11-14T06:26:32.217Z,4.50
2022-11-14T06:28:59.767Z,4.40
2022-11-14T06:31:27.197Z,4.40
2022-11-14T06:33:54.161Z,4.40
2022-11-14T06:36:21.019Z,4.50
2022-11-14T06:38:47.788Z,4.60
2022-11-14T06:41:17.306Z,4.70
2022-11-14T06:43:46.700Z,4.70
2022-11-14T06:46:16.541Z,4.70
2022-11-14T06:48:44.319Z,4.80
2022-11-14T06:51:12.935Z,4.80
2022-11-14T06:53:41.001Z,4.80
2022-11-14T06:56:10.798Z,4.80
2022-11-14T06:58:40.728Z,4.90
2022-11-14T07:01:27.725Z,5.00
2022-11-14T07:03:55.074Z,5.10
2022-11-14T07:06:25.425Z,5.10
2022-11-14T07:08:53.247Z,5.10
2022-11-14T07:11:27.780Z,5.20
2022-11-14T07:14:00.230Z,5.20
2022-11-14T07:16:30.498Z,5.30
2022-11-14T07:19:01.707Z,5.30
2022-11-14T07:21:30.355Z,5.20
2022-11-14T07:23:58.238Z,5.20
2022-11-14T07:26:25.451Z,5.10
2022-11-14T07:28:55.474Z,5.10
2022-11-14T07:31:25.231Z,5.10
2022-11-14T07:33:52.117Z,5.10
2022-11-14T07:36:19.031Z,5.10
2022-11-14T07:38:45.944Z,5.10
2022-11-14T07:41:15.165Z,5.10
2022-11-14T07:43:42.493Z,5.10
2022-11-14T07:46:13.009Z,5.10
2022-11-14T07:48:39.996Z,5.10
2022-11-14T07:51:09.786Z,5.10
2022-11-14T07:53:36.575Z,5.10
2022-11-14T07:56:06.078Z,5.10
2022-11-14T07:58:35.331Z,5.10
2022-11-14T08:01:03.103Z,5.10
2022-11-14T08:03:30.417Z,5.10
2022-11-14T08:06:05.376Z,5.10
2022-11-14T08:08:32.626Z,5.20
2022-11-14T08:11:00.701Z,5.10
2022-11-14T08:13:33.485Z,5.10
2022-11-14T08:16:10.748Z,5.20
2022-11-14T08:18:39.601Z,5.30
2022-11-14T08:21:06.955Z,5.40
2022-11-14T08:23:34.979Z,5.40
2022-11-14T08:26:02.042Z,5.50
2022-11-14T08:28:29.720Z,5.60
2022-11-14T08:31:02.341Z,5.70
2022-11-14T08:33:29.835Z,5.70
2022-11-14T08:35:59.872Z,5.70
2022-11-14T08:38:26.931Z,5.90
2022-11-14T08:40:53.834Z,5.90
2022-11-14T08:43:20.648Z,5.90
2022-11-14T08:45:47.508Z,6.00
2022-11-14T08:48:14.534Z,6.10
2022-11-14T08:50:41.369Z,6.10
2022-11-14T08:53:08.304Z,6.10
2022-11-14T08:55:35.214Z,6.10
2022-11-14T08:58:02.184Z,6.10
2022-11-14T09:00:29.275Z,6.20
2022-11-14T09:02:56.264Z,6.20
2022-11-14T09:05:23.377Z,6.30
2022-11-14T09:07:50.296Z,6.20
2022-11-14T09:10:17.508Z,6.30
2022-11-14T09:12:44.456Z,6.30
2022-11-14T09:15:11.980Z,6.30
2022-11-14T09:17:39.037Z,6.30
2022-11-14T09:20:06.624Z,6.40
2022-11-14T09:22:33.887Z,6.40
2022-11-14T09:25:00.643Z,6.50
2022-11-14T09:27:27.901Z,6.50
2022-11-14T09:29:54.684Z,6.50
2022-11-14T09:32:21.455Z,6.50
2022-11-14T09:34:48.347Z,6.60
2022-11-14T09:37:15.294Z,6.70
2022-11-14T09:39:42.122Z,6.70
2022-11-14T09:42:41.974Z,6.80
2022-11-14T09:45:15.185Z,6.80
2022-11-14T09:48:01.423Z,6.80
2022-11-14T09:50:35.828Z,6.90
2022-11-14T09:53:10.570Z,6.90
2022-11-14T09:55:37.677Z,7.10
2022-11-14T09:58:06.368Z,7.00
2022-11-14T10:00:57.000Z,7.10
2022-11-14T10:03:52.204Z,7.30
2022-11-14T10:06:32.301Z,7.30
2022-11-14T10:09:28.868Z,7.30
2022-11-14T10:12:17.658Z,7.30
2022-11-14T10:15:10.353Z,7.40
2022-11-14T10:17:37.230Z,7.50
2022-11-14T10:20:29.813Z,7.50
2022-11-14T10:23:41.765Z,7.50
2022-11-14T10:26:21.191Z,7.70
2022-11-14T10:29:05.941Z,7.80
2022-11-14T10:31:56.283Z,7.90
2022-11-14T10:34:39.259Z,8.00
2022-11-14T10:37:17.088Z,8.00
2022-11-14T10:39:53.794Z,8.10
2022-11-14T10:42:23.607Z,8.10
2022-11-14T10:45:15.506Z,8.30
2022-11-14T10:47:48.633Z,8.40
2022-11-14T10:50:22.152Z,8.70
2022-11-14T10:52:54.674Z,9.20
2022-11-14T10:55:32.052Z,9.10
2022-11-14T10:58:14.666Z,9.20
2022-11-14T11:00:41.471Z,9.40
2022-11-14T11:03:08.516Z,9.60
2022-11-14T11:05:46.698Z,9.70
2022-11-14T11:08:43.394Z,10.00
2022-11-14T11:11:32.665Z,9.90
2022-11-14T11:14:01.138Z,10.00
2022-11-14T11:16:29.954Z,9.90
2022-11-14T11:19:24.897Z,10.10
2022-11-14T11:21:53.002Z,10.20
2022-11-14T11:24:37.226Z,10.10
2022-11-14T11:27:23.465Z,10.10
2022-11-14T11:30:04.475Z,10.10
2022-11-14T11:32:31.479Z,10.10
2022-11-14T11:35:02.538Z,10.10
2022-11-14T11:37:34.417Z,10.30
2022-11-14T11:40:05.213Z,10.30
2022-11-14T11:45:49.171Z,10.30
2022-11-14T11:48:23.925Z,10.40
2022-11-14T11:50:50.695Z,10.50
2022-11-14T11:53:33.492Z,10.50
2022-11-14T11:56:07.201Z,10.60
2022-11-14T11:58:44.400Z,10.50
2022-11-14T12:01:13.466Z,10.50
2022-11-14T12:03:49.078Z,10.60
2022-11-14T12:06:24.616Z,10.50
2022-11-14T12:09:15.385Z,10.50
2022-11-14T12:12:08.322Z,10.60
2022-11-14T12:14:56.877Z,10.60
2022-11-14T12:18:04.032Z,10.60
2022-11-14T12:20:51.670Z,10.60
2022-11-14T12:23:18.381Z,10.70
2022-11-14T12:26:05.628Z,10.80
2022-11-14T12:28:50.624Z,10.90
2022-11-14T12:31:18.829Z,10.80
2022-11-14T12:34:06.040Z,10.90
2022-11-14T12:36:35.214Z,10.90
2022-11-14T12:39:02.710Z,10.90
2022-11-14T12:41:36.554Z,10.90
2022-11-14T12:44:39.866Z,11.00
2022-11-14T12:47:06.866Z,10.90
2022-11-14T12:49:47.326Z,11.00
2022-11-14T12:52:48.934Z,11.00
2022-11-14T12:55:18.706Z,11.00
2022-11-14T12:57:52.419Z,11.00
2022-11-14T13:00:19.624Z,11.10
2022-11-14T13:02:52.873Z,11.10
2022-11-14T13:05:25.756Z,11.10
2022-11-14T13:08:24.456Z,11.10
2022-11-14T13:10:51.367Z,11.10
2022-11-14T13:13:37.148Z,11.10
2022-11-14T13:16:23.622Z,11.10
2022-11-14T13:19:38.045Z,11.10
2022-11-14T13:22:16.785Z,11.20
2022-11-14T13:24:59.058Z,11.30
2022-11-14T13:28:05.406Z,11.30
2022-11-14T13:31:01.443Z,11.30
2022-11-14T13:33:45.365Z,11.30
2022-11-14T13:36:24.777Z,11.40
2022-11-14T13:39:03.287Z,11.40
2022-11-14T13:42:07.584Z,11.50
2022-11-14T13:44:56.175Z,11.50
2022-11-14T13:47:36.845Z,11.60
2022-11-14T13:50:17.196Z,11.60
2022-11-14T13:52:46.462Z,11.50
2022-11-14T13:55:45.057Z,11.40
2022-11-14T13:58:25.047Z,11.40
2022-11-14T14:01:00.806Z,11.30
2022-11-14T14:03:50.293Z,11.30
2022-11-14T14:06:46.984Z,11.50
2022-11-14T14:09:13.972Z,11.50
2022-11-14T14:12:02.229Z,11.50
2022-11-14T14:14:44.129Z,11.40
2022-11-14T14:17:27.817Z,11.30
2022-11-14T14:20:03.025Z,11.30
2022-11-14T14:22:35.838Z,11.30
2022-11-14T14:25:08.638Z,11.30
2022-11-14T14:27:57.177Z,11.20
2022-11-14T14:30:24.408Z,11.20
2022-11-14T14:33:12.840Z,11.20
2022-11-14T14:35:48.759Z,11.10
2022-11-14T14:38:27.464Z,11.20
2022-11-14T14:40:56.053Z,11.30
2022-11-14T14:43:31.977Z,11.20
2022-11-14T14:45:59.272Z,11.10
2022-11-14T14:48:28.752Z,11.00
2022-11-14T14:51:00.141Z,11.10
2022-11-14T14:53:32.908Z,11.10
2022-11-14T14:56:17.094Z,11.00
2022-11-14T14:58:44.646Z,10.80
2022-11-14T15:01:17.617Z,10.80
2022-11-14T15:04:12.237Z,10.90
2022-11-14T15:06:40.145Z,10.80
2022-11-14T15:09:17.387Z,10.80
2022-11-14T15:11:47.326Z,10.60
2022-11-14T15:14:17.810Z,10.70
2022-11-14T15:16:46.964Z,10.60
2022-11-14T15:19:16.784Z,10.50
2022-11-14T15:21:43.973Z,10.60
2022-11-14T15:24:20.992Z,10.60
2022-11-14T15:26:50.157Z,10.40
2022-11-14T15:29:22.058Z,10.40
2022-11-14T15:31:52.626Z,10.30
2022-11-14T15:34:37.481Z,10.20
2022-11-14T15:37:10.426Z,10.10
2022-11-14T15:39:37.917Z,10.20
2022-11-14T15:42:21.160Z,10.20
2022-11-14T15:44:49.051Z,10.10
2022-11-14T15:47:27.692Z,10.10
2022-11-14T15:50:05.531Z,10.00
2022-11-14T15:52:36.527Z,10.20
2022-11-14T15:55:04.603Z,10.10
2022-11-14T15:57:32.259Z,9.90
2022-11-14T15:59:58.969Z,9.90
2022-11-14T16:02:29.966Z,9.70
2022-11-14T16:04:58.950Z,9.70
2022-11-14T16:07:26.212Z,9.60
2022-11-14T16:09:53.126Z,9.50
2022-11-14T16:12:20.054Z,9.50
2022-11-14T16:14:46.915Z,9.50
2022-11-14T16:17:16.098Z,9.10
2022-11-14T16:19:43.511Z,9.00
2022-11-14T16:22:17.412Z,8.90
2022-11-14T16:24:44.324Z,8.80
2022-11-14T16:27:11.885Z,8.60
2022-11-14T16:29:38.946Z,8.60
2022-11-14T16:32:05.894Z,8.40
2022-11-14T16:34:32.697Z,8.50
2022-11-14T16:37:02.016Z,8.40
2022-11-14T16:39:29.317Z,8.30
2022-11-14T16:42:03.012Z,8.30
2022-11-14T16:44:33.432Z,8.30
2022-11-14T16:47:04.168Z,8.40
2022-11-14T16:49:31.134Z,8.30
2022-11-14T16:52:03.064Z,8.30
2022-11-14T16:54:29.975Z,8.40
2022-11-14T16:56:57.525Z,8.50
2022-11-14T16:59:24.408Z,8.40
2022-11-14T17:01:51.439Z,8.40
2022-11-14T17:04:18.205Z,8.50
2022-11-14T17:06:45.220Z,8.70
2022-11-14T17:09:13.385Z,8.70
2022-11-14T17:11:40.246Z,8.70
2022-11-14T17:14:07.312Z,8.70
2022-11-14T17:16:34.282Z,8.70
2022-11-14T17:19:01.423Z,8.90
2022-11-14T17:21:28.236Z,8.90
2022-11-14T17:23:57.129Z,8.90
2022-11-14T17:26:24.382Z,9.00
2022-11-14T17:28:51.276Z,8.90
2022-11-14T17:31:18.355Z,8.80
2022-11-14T17:33:54.378Z,8.70
2022-11-14T17:36:23.349Z,8.60
2022-11-14T17:38:50.259Z,8.50
2022-11-14T17:41:17.396Z,8.50
2022-11-14T17:43:44.955Z,8.70
2022-11-14T17:46:16.102Z,8.80
2022-11-14T17:48:44.635Z,9.20
2022-11-14T17:51:13.502Z,9.40
2022-11-14T17:53:41.027Z,9.30
2022-11-14T17:56:09.745Z,9.50
2022-11-14T17:58:36.568Z,9.30
2022-11-14T18:01:12.737Z,9.30
2022-11-14T18:03:39.793Z,9.40
2022-11-14T18:06:11.740Z,9.20
2022-11-14T18:08:39.006Z,9.20
2022-11-14T18:11:08.043Z,9.10
2022-11-14T18:13:34.973Z,9.10
2022-11-14T18:16:09.111Z,9.20
2022-11-14T18:18:36.919Z,9.30
2022-11-14T18:21:12.167Z,9.30
2022-11-14T18:23:39.050Z,9.20
2022-11-14T18:26:16.969Z,9.10
2022-11-14T18:28:44.434Z,8.90
2022-11-14T18:31:12.224Z,8.90
2022-11-14T18:33:40.392Z,8.80
2022-11-14T18:36:13.565Z,8.80
2022-11-14T18:38:41.314Z,8.80
2022-11-14T18:41:21.148Z,8.90
2022-11-14T18:43:48.835Z,9.00
2022-11-14T18:46:18.340Z,9.20
2022-11-14T18:48:47.586Z,9.20
2022-11-14T18:51:20.764Z,9.10
2022-11-14T18:53:48.161Z,9.10
2022-11-14T18:56:17.749Z,9.00
2022-11-14T18:58:45.613Z,9.10
2022-11-14T19:01:23.999Z,9.10
2022-11-14T19:04:02.011Z,9.10
2022-11-14T19:06:31.799Z,9.20
2022-11-14T19:09:00.123Z,9.20
2022-11-14T19:11:45.432Z,9.30
2022-11-14T19:14:12.892Z,9.20
2022-11-14T19:16:39.735Z,9.30
2022-11-14T19:19:07.539Z,9.20
2022-11-14T19:21:34.783Z,9.20
2022-11-14T19:24:03.783Z,9.20
2022-11-14T19:26:31.320Z,9.20
2022-11-14T19:29:06.185Z,9.20
2022-11-14T19:31:33.337Z,9.10
2022-11-14T19:34:00.591Z,9.20
2022-11-14T19:36:57.848Z,9.20
2022-11-14T19:39:14.688Z,9.10
2022-11-14T19:41:41.583Z,9.10
2022-11-14T19:44:08.632Z,9.10
2022-11-14T19:46:36.795Z,9.10
2022-11-14T19:49:04.944Z,9.10
2022-11-14T19:51:32.940Z,9.20
2022-11-14T19:54:01.724Z,9.20
2022-11-14T19:56:28.691Z,9.10
2022-11-14T19:58:56.631Z,9.10
2022-11-14T20:01:28.549Z,9.10
2022-11-14T20:04:00.846Z,9.10
2022-11-14T20:06:30.151Z,9.10
2022-11-14T20:08:58.455Z,9.10
2022-11-14T20:11:28.916Z,9.10
2022-11-14T20:13:56.871Z,9.10
2022-11-14T20:16:27.950Z,9.10
2022-11-14T20:18:59.044Z,9.10
2022-11-14T20:21:28.274Z,9.00
2022-11-14T20:23:55.295Z,9.10
2022-11-14T20:26:23.673Z,9.10
2022-11-14T20:28:52.929Z,9.00
2022-11-14T20:31:23.178Z,9.00
2022-11-14T20:33:52.916Z,9.10
2022-11-14T20:36:25.264Z,9.10
2022-11-14T20:38:53.057Z,9.20
2022-11-14T20:41:21.154Z,9.50
2022-11-14T20:43:48.397Z,9.80
2022-11-14T20:46:17.469Z,10.00
2022-11-14T20:48:45.422Z,10.10
2022-11-14T20:51:23.955Z,10.20
2022-11-14T20:53:53.044Z,10.20
2022-11-14T20:56:20.875Z,10.20
2022-11-14T20:58:51.723Z,10.30
2022-11-14T21:01:19.303Z,10.30
2022-11-14T21:03:47.171Z,10.30
2022-11-14T21:06:15.559Z,10.40
2022-11-14T21:08:43.243Z,10.50
2022-11-14T21:11:14.392Z,10.50
2022-11-14T21:13:56.909Z,10.60
2022-11-14T21:16:27.345Z,10.50
2022-11-14T21:18:55.246Z,10.40
2022-11-14T21:21:25.106Z,10.40
2022-11-14T21:23:52.415Z,10.50
2022-11-14T21:26:26.515Z,10.60
2022-11-14T21:28:56.021Z,10.60
2022-11-14T21:31:24.972Z,10.60
2022-11-14T21:33:55.194Z,10.40
2022-11-14T21:36:43.793Z,10.20
2022-11-14T21:39:15.503Z,10.10
2022-11-14T21:41:43.661Z,9.90
2022-11-14T21:44:13.219Z,9.90
2022-11-14T21:46:41.220Z,10.00
2022-11-14T21:49:09.078Z,9.90
2022-11-14T21:51:36.161Z,9.80
2022-11-14T21:54:03.205Z,9.70
2022-11-14T21:56:32.098Z,9.70
2022-11-14T21:59:12.911Z,9.60
2022-11-14T22:02:04.186Z,9.60
2022-11-14T22:04:31.953Z,9.60
2022-11-14T22:07:01.167Z,9.60
2022-11-14T22:09:29.147Z,9.50
2022-11-14T22:11:56.848Z,9.40
2022-11-14T22:14:23.957Z,9.30
2022-11-14T22:16:51.261Z,9.40
2022-11-14T22:19:18.950Z,9.20
2022-11-14T22:21:45.998Z,9.10
2022-11-14T22:24:12.789Z,9.10
2022-11-14T22:26:42.827Z,9.10
2022-11-14T22:29:09.828Z,9.00
2022-11-14T22:31:38.194Z,9.00
2022-11-14T22:34:05.361Z,8.80
2022-11-14T22:36:33.380Z,8.70
2022-11-14T22:39:00.429Z,8.70
2022-11-14T22:41:33.448Z,8.70
2022-11-14T22:44:01.154Z,8.70
2022-11-14T22:46:28.600Z,8.80
2022-11-14T22:48:55.850Z,8.70
2022-11-14T22:51:24.965Z,8.80
2022-11-14T22:53:54.252Z,8.90
2022-11-14T22:56:24.308Z,9.10
2022-11-14T22:58:51.631Z,9.20
2022-11-14T23:01:21.233Z,9.20
2022-11-14T23:03:52.607Z,9.30
2022-11-14T23:06:19.427Z,9.40
2022-11-14T23:08:46.641Z,9.40
2022-11-14T23:11:16.598Z,9.40
2022-11-14T23:13:48.765Z,9.50
2022-11-14T23:16:18.601Z,9.50
2022-11-14T23:18:53.197Z,9.50
2022-11-14T23:21:29.186Z,9.60
2022-11-14T23:24:01.249Z,9.60
2022-11-14T23:26:30.169Z,9.70
2022-11-14T23:28:57.348Z,9.70
2022-11-14T23:31:25.478Z,9.70
2022-11-14T23:33:54.717Z,9.70
2022-11-14T23:36:22.024Z,9.70
2022-11-14T23:38:48.950Z,9.80
2022-11-14T23:41:18.379Z,9.80
2022-11-14T23:43:45.818Z,9.80
2022-11-14T23:46:12.856Z,9.90
2022-11-14T23:48:39.812Z,10.00
2022-11-14T23:51:06.669Z,10.00
2022-11-14T23:53:33.679Z,10.00
2022-11-14T23:56:02.011Z,10.10
2022-11-14T23:58:30.035Z,10.10
